Terminal Aerodrome Forecast
Issued by NWS Charleston, SC

Home | Current Version | Previous Version | Text Only | Print | Product List | Glossary On
Versions: 1 2 3 4 5 6 7 8 9 10 11 12 13 14
000
FTUS42 KCHS 300523
TAFSAV
TAF
KSAV 300523Z 3006/0106 15006KT P6SM SCT100
     FM300900 14005KT P6SM BKN025
      TEMPO 3011/3015 BKN015 OVC025
     FM301500 16014G21KT P6SM BKN035
     FM301800 15018G28KT P6SM SCT035
     FM010300 15010KT P6SM SCT045=

USA.gov is the U.S. government's official web portal to all federal, state and local government web resources and services.